EIKY

Kerry Airport

Killarney, Ireland
METAR EIKY 241400Z VRB06KT CAVOK 25/08 Q1024
Observed Flight Rules
Jun-24 @ 14:00 UTC (an hour ago) Visual Flight Rules
Wind Visibility Clouds
Variable at 6 knots 10,000+ meters
  • Clear skies
Temperatures Readings
Current 25°C / 77°F
Dewpoint 8°C / 46°F
Humidity 34%
Altimeter 30.24" Hg
Pressure 1024 hPa
Elevation 34
METAR EIKY 241400Z VRB06KT CAVOK 25/08 Q1024
Observed Flight Rules
Jun-24 @ 14:00 UTC
(an hour ago)
VFR
Wind Visibility
Variable at 6 knots 10,000+ meters
Clouds
  • Clear skies
Temperature Dewpoint
25°C / 77°F 8°C / 46°F
Humidity Altimeter Pressure
34% 30.24" Hg 1024 hPa